sensor_id;sensor_type;location;lat;lon;timestamp;P1;durP1;ratioP1;P2;durP2;ratioP2
10721;SDS011;5412;59.450;18.124;2023-05-20T00:01:59;3.13;;;1.20;;
10721;SDS011;5412;59.450;18.124;2023-05-20T00:04:25;1.60;;;1.20;;
10721;SDS011;5412;59.450;18.124;2023-05-20T00:06:50;2.25;;;1.20;;
10721;SDS011;5412;59.450;18.124;2023-05-20T00:09:16;6.90;;;1.77;;
10721;SDS011;5412;59.450;18.124;2023-05-20T00:11:42;1.13;;;1.05;;
10721;SDS011;5412;59.450;18.124;2023-05-20T00:14:10;1.65;;;1.42;;
10721;SDS011;5412;59.450;18.124;2023-05-20T00:16:35;2.35;;;1.50;;
10721;SDS011;5412;59.450;18.124;2023-05-20T00:19:01;1.52;;;1.20;;
10721;SDS011;5412;59.450;18.124;2023-05-20T00:21:27;1.13;;;1.02;;
10721;SDS011;5412;59.450;18.124;2023-05-20T00:23:53;2.53;;;1.45;;
10721;SDS011;5412;59.450;18.124;2023-05-20T00:26:20;3.10;;;1.27;;
10721;SDS011;5412;59.450;18.124;2023-05-20T00:28:46;2.33;;;1.30;;
10721;SDS011;5412;59.450;18.124;2023-05-20T00:31:12;2.08;;;1.30;;
10721;SDS011;5412;59.450;18.124;2023-05-20T00:33:38;1.42;;;1.30;;
10721;SDS011;5412;59.450;18.124;2023-05-20T00:36:04;1.42;;;1.10;;
10721;SDS011;5412;59.450;18.124;2023-05-20T00:38:30;3.65;;;1.50;;
10721;SDS011;5412;59.450;18.124;2023-05-20T00:40:56;1.63;;;1.42;;
10721;SDS011;5412;59.450;18.124;2023-05-20T00:43:21;3.42;;;1.38;;
10721;SDS011;5412;59.450;18.124;2023-05-20T00:45:49;3.10;;;1.42;;
10721;SDS011;5412;59.450;18.124;2023-05-20T00:48:16;4.20;;;1.30;;
10721;SDS011;5412;59.450;18.124;2023-05-20T00:50:42;3.00;;;1.20;;
10721;SDS011;5412;59.450;18.124;2023-05-20T00:53:08;1.63;;;1.13;;
10721;SDS011;5412;59.450;18.124;2023-05-20T00:55:37;2.33;;;1.58;;
10721;SDS011;5412;59.450;18.124;2023-05-20T00:58:03;2.45;;;1.60;;
10721;SDS011;5412;59.450;18.124;2023-05-20T01:00:28;2.55;;;1.33;;
10721;SDS011;5412;59.450;18.124;2023-05-20T01:02:54;1.77;;;1.15;;
10721;SDS011;5412;59.450;18.124;2023-05-20T01:05:21;3.42;;;1.38;;
10721;SDS011;5412;59.450;18.124;2023-05-20T01:07:46;3.50;;;1.27;;
10721;SDS011;5412;59.450;18.124;2023-05-20T01:10:12;2.83;;;1.27;;
10721;SDS011;5412;59.450;18.124;2023-05-20T01:12:47;1.52;;;1.42;;
10721;SDS011;5412;59.450;18.124;2023-05-20T01:15:18;2.58;;;1.50;;
10721;SDS011;5412;59.450;18.124;2023-05-20T01:17:46;3.65;;;1.45;;
10721;SDS011;5412;59.450;18.124;2023-05-20T01:20:16;2.72;;;1.45;;
10721;SDS011;5412;59.450;18.124;2023-05-20T01:22:52;6.97;;;1.40;;
10721;SDS011;5412;59.450;18.124;2023-05-20T01:25:19;2.85;;;1.48;;
10721;SDS011;5412;59.450;18.124;2023-05-20T01:27:45;3.22;;;1.52;;
10721;SDS011;5412;59.450;18.124;2023-05-20T01:30:13;2.95;;;1.65;;
10721;SDS011;5412;59.450;18.124;2023-05-20T01:32:42;3.67;;;1.95;;
10721;SDS011;5412;59.450;18.124;2023-05-20T01:35:15;5.40;;;1.70;;
10721;SDS011;5412;59.450;18.124;2023-05-20T01:37:41;6.90;;;1.42;;
10721;SDS011;5412;59.450;18.124;2023-05-20T01:40:08;2.25;;;1.35;;
10721;SDS011;5412;59.450;18.124;2023-05-20T01:42:37;3.58;;;1.58;;
10721;SDS011;5412;59.450;18.124;2023-05-20T01:45:04;1.83;;;1.30;;
10721;SDS011;5412;59.450;18.124;2023-05-20T01:47:30;5.65;;;1.70;;
10721;SDS011;5412;59.450;18.124;2023-05-20T01:49:56;5.28;;;2.00;;
10721;SDS011;5412;59.450;18.124;2023-05-20T01:52:22;3.53;;;1.30;;
10721;SDS011;5412;59.450;18.124;2023-05-20T01:54:47;8.55;;;1.50;;
10721;SDS011;5412;59.450;18.124;2023-05-20T01:57:17;3.97;;;1.45;;
10721;SDS011;5412;59.450;18.124;2023-05-20T01:59:46;3.65;;;1.58;;
10721;SDS011;5412;59.450;18.124;2023-05-20T02:02:12;3.80;;;1.58;;
10721;SDS011;5412;59.450;18.124;2023-05-20T02:04:38;3.22;;;1.40;;
10721;SDS011;5412;59.450;18.124;2023-05-20T02:07:06;1.25;;;1.15;;
10721;SDS011;5412;59.450;18.124;2023-05-20T02:09:32;3.58;;;1.48;;
10721;SDS011;5412;59.450;18.124;2023-05-20T02:11:57;1.85;;;1.52;;
10721;SDS011;5412;59.450;18.124;2023-05-20T02:14:23;2.60;;;1.70;;
10721;SDS011;5412;59.450;18.124;2023-05-20T02:16:49;4.05;;;1.48;;
10721;SDS011;5412;59.450;18.124;2023-05-20T02:19:15;5.65;;;1.67;;
10721;SDS011;5412;59.450;18.124;2023-05-20T02:21:47;3.38;;;1.70;;
10721;SDS011;5412;59.450;18.124;2023-05-20T02:24:13;2.45;;;1.30;;
10721;SDS011;5412;59.450;18.124;2023-05-20T02:26:39;2.70;;;1.73;;
10721;SDS011;5412;59.450;18.124;2023-05-20T02:29:05;2.00;;;1.42;;
10721;SDS011;5412;59.450;18.124;2023-05-20T02:31:30;2.95;;;1.67;;
10721;SDS011;5412;59.450;18.124;2023-05-20T02:33:56;2.72;;;1.48;;
10721;SDS011;5412;59.450;18.124;2023-05-20T02:36:22;2.97;;;1.58;;
10721;SDS011;5412;59.450;18.124;2023-05-20T02:38:48;3.05;;;1.70;;
10721;SDS011;5412;59.450;18.124;2023-05-20T02:41:13;4.00;;;1.70;;
10721;SDS011;5412;59.450;18.124;2023-05-20T02:43:39;3.70;;;1.60;;
10721;SDS011;5412;59.450;18.124;2023-05-20T02:46:05;1.98;;;1.45;;
10721;SDS011;5412;59.450;18.124;2023-05-20T02:48:31;3.15;;;1.63;;
10721;SDS011;5412;59.450;18.124;2023-05-20T02:50:58;2.53;;;1.58;;
10721;SDS011;5412;59.450;18.124;2023-05-20T02:53:24;3.33;;;1.45;;
10721;SDS011;5412;59.450;18.124;2023-05-20T02:55:50;2.40;;;1.33;;
10721;SDS011;5412;59.450;18.124;2023-05-20T02:58:16;2.15;;;1.67;;
10721;SDS011;5412;59.450;18.124;2023-05-20T03:00:41;2.65;;;1.92;;
10721;SDS011;5412;59.450;18.124;2023-05-20T03:03:08;3.17;;;1.80;;
10721;SDS011;5412;59.450;18.124;2023-05-20T03:05:35;2.08;;;1.52;;
10721;SDS011;5412;59.450;18.124;2023-05-20T03:08:06;4.47;;;1.50;;
10721;SDS011;5412;59.450;18.124;2023-05-20T03:10:34;5.20;;;1.77;;
10721;SDS011;5412;59.450;18.124;2023-05-20T03:13:00;3.90;;;1.90;;
10721;SDS011;5412;59.450;18.124;2023-05-20T03:15:26;3.20;;;1.70;;
10721;SDS011;5412;59.450;18.124;2023-05-20T03:17:52;2.72;;;1.50;;
10721;SDS011;5412;59.450;18.124;2023-05-20T03:20:18;2.40;;;1.60;;
10721;SDS011;5412;59.450;18.124;2023-05-20T03:22:44;2.95;;;1.70;;
10721;SDS011;5412;59.450;18.124;2023-05-20T03:25:10;2.35;;;1.45;;
10721;SDS011;5412;59.450;18.124;2023-05-20T03:27:36;5.70;;;2.10;;
10721;SDS011;5412;59.450;18.124;2023-05-20T03:30:02;6.53;;;1.77;;
10721;SDS011;5412;59.450;18.124;2023-05-20T03:32:29;2.13;;;1.35;;
10721;SDS011;5412;59.450;18.124;2023-05-20T03:34:54;2.85;;;2.28;;
10721;SDS011;5412;59.450;18.124;2023-05-20T03:37:22;5.20;;;2.17;;
10721;SDS011;5412;59.450;18.124;2023-05-20T03:39:48;3.95;;;1.50;;
10721;SDS011;5412;59.450;18.124;2023-05-20T03:42:13;2.42;;;1.52;;
10721;SDS011;5412;59.450;18.124;2023-05-20T03:44:40;4.25;;;1.50;;
10721;SDS011;5412;59.450;18.124;2023-05-20T03:47:05;4.93;;;1.58;;
10721;SDS011;5412;59.450;18.124;2023-05-20T03:49:31;2.22;;;1.17;;
10721;SDS011;5412;59.450;18.124;2023-05-20T03:51:57;5.70;;;1.67;;
10721;SDS011;5412;59.450;18.124;2023-05-20T03:54:22;3.50;;;1.50;;
10721;SDS011;5412;59.450;18.124;2023-05-20T03:56:48;3.78;;;1.60;;
10721;SDS011;5412;59.450;18.124;2023-05-20T03:59:14;1.88;;;1.17;;
10721;SDS011;5412;59.450;18.124;2023-05-20T04:01:40;3.72;;;1.63;;
10721;SDS011;5412;59.450;18.124;2023-05-20T04:04:05;3.75;;;1.20;;
10721;SDS011;5412;59.450;18.124;2023-05-20T04:06:31;3.47;;;1.50;;
10721;SDS011;5412;59.450;18.124;2023-05-20T04:08:57;2.60;;;1.20;;
10721;SDS011;5412;59.450;18.124;2023-05-20T04:11:23;3.35;;;1.63;;
10721;SDS011;5412;59.450;18.124;2023-05-20T04:13:48;5.43;;;1.80;;
10721;SDS011;5412;59.450;18.124;2023-05-20T04:16:14;3.65;;;1.58;;
10721;SDS011;5412;59.450;18.124;2023-05-20T04:18:40;3.50;;;1.30;;
10721;SDS011;5412;59.450;18.124;2023-05-20T04:21:06;3.65;;;1.60;;
10721;SDS011;5412;59.450;18.124;2023-05-20T04:23:32;1.85;;;1.20;;
10721;SDS011;5412;59.450;18.124;2023-05-20T04:25:58;2.35;;;1.27;;
10721;SDS011;5412;59.450;18.124;2023-05-20T04:28:26;4.82;;;1.60;;
10721;SDS011;5412;59.450;18.124;2023-05-20T04:31:01;5.97;;;1.60;;
10721;SDS011;5412;59.450;18.124;2023-05-20T04:33:29;1.38;;;1.23;;
10721;SDS011;5412;59.450;18.124;2023-05-20T04:35:56;2.10;;;1.35;;
10721;SDS011;5412;59.450;18.124;2023-05-20T04:38:25;5.55;;;1.60;;
10721;SDS011;5412;59.450;18.124;2023-05-20T04:40:56;2.67;;;1.30;;
10721;SDS011;5412;59.450;18.124;2023-05-20T04:43:23;4.93;;;1.58;;
10721;SDS011;5412;59.450;18.124;2023-05-20T04:45:57;2.67;;;1.42;;
10721;SDS011;5412;59.450;18.124;2023-05-20T04:48:29;1.50;;;1.30;;
10721;SDS011;5412;59.450;18.124;2023-05-20T04:50:56;3.20;;;1.52;;
10721;SDS011;5412;59.450;18.124;2023-05-20T04:53:22;1.35;;;1.20;;
10721;SDS011;5412;59.450;18.124;2023-05-20T04:55:48;3.97;;;1.60;;
10721;SDS011;5412;59.450;18.124;2023-05-20T04:58:18;3.78;;;1.63;;
10721;SDS011;5412;59.450;18.124;2023-05-20T05:00:44;3.30;;;1.45;;
10721;SDS011;5412;59.450;18.124;2023-05-20T05:03:10;2.10;;;1.20;;
10721;SDS011;5412;59.450;18.124;2023-05-20T05:05:39;2.33;;;1.10;;
10721;SDS011;5412;59.450;18.124;2023-05-20T05:08:06;3.92;;;1.20;;
10721;SDS011;5412;59.450;18.124;2023-05-20T05:10:33;2.63;;;1.20;;
10721;SDS011;5412;59.450;18.124;2023-05-20T05:12:59;2.35;;;1.10;;
10721;SDS011;5412;59.450;18.124;2023-05-20T05:15:25;1.65;;;1.00;;
10721;SDS011;5412;59.450;18.124;2023-05-20T05:17:51;2.55;;;1.08;;
10721;SDS011;5412;59.450;18.124;2023-05-20T05:20:18;2.70;;;1.40;;
10721;SDS011;5412;59.450;18.124;2023-05-20T05:22:44;3.03;;;1.40;;
10721;SDS011;5412;59.450;18.124;2023-05-20T05:25:10;2.22;;;1.15;;
10721;SDS011;5412;59.450;18.124;2023-05-20T05:27:37;1.80;;;1.10;;
10721;SDS011;5412;59.450;18.124;2023-05-20T05:30:03;2.92;;;1.45;;
10721;SDS011;5412;59.450;18.124;2023-05-20T05:32:30;3.33;;;1.30;;
10721;SDS011;5412;59.450;18.124;2023-05-20T05:34:56;2.80;;;1.40;;
10721;SDS011;5412;59.450;18.124;2023-05-20T05:37:22;4.07;;;1.05;;
10721;SDS011;5412;59.450;18.124;2023-05-20T05:39:48;1.90;;;1.13;;
10721;SDS011;5412;59.450;18.124;2023-05-20T05:42:13;2.55;;;1.02;;
10721;SDS011;5412;59.450;18.124;2023-05-20T05:44:40;3.55;;;1.20;;
10721;SDS011;5412;59.450;18.124;2023-05-20T05:47:06;2.00;;;1.17;;
10721;SDS011;5412;59.450;18.124;2023-05-20T05:49:32;2.25;;;1.10;;
10721;SDS011;5412;59.450;18.124;2023-05-20T05:51:58;1.10;;;1.00;;
10721;SDS011;5412;59.450;18.124;2023-05-20T05:54:23;3.17;;;1.15;;
10721;SDS011;5412;59.450;18.124;2023-05-20T05:56:52;3.15;;;1.35;;
10721;SDS011;5412;59.450;18.124;2023-05-20T05:59:18;3.17;;;1.30;;
10721;SDS011;5412;59.450;18.124;2023-05-20T06:01:44;2.63;;;1.10;;
10721;SDS011;5412;59.450;18.124;2023-05-20T06:04:10;1.48;;;1.00;;
10721;SDS011;5412;59.450;18.124;2023-05-20T06:06:36;3.00;;;1.45;;
10721;SDS011;5412;59.450;18.124;2023-05-20T06:09:02;3.70;;;1.50;;
10721;SDS011;5412;59.450;18.124;2023-05-20T06:11:28;2.88;;;1.30;;
10721;SDS011;5412;59.450;18.124;2023-05-20T06:13:53;3.42;;;1.58;;
10721;SDS011;5412;59.450;18.124;2023-05-20T06:16:19;3.13;;;1.10;;
10721;SDS011;5412;59.450;18.124;2023-05-20T06:18:45;1.52;;;1.20;;
10721;SDS011;5412;59.450;18.124;2023-05-20T06:21:11;4.45;;;1.42;;
10721;SDS011;5412;59.450;18.124;2023-05-20T06:23:37;2.55;;;1.50;;
10721;SDS011;5412;59.450;18.124;2023-05-20T06:26:03;4.03;;;1.35;;
10721;SDS011;5412;59.450;18.124;2023-05-20T06:28:29;6.13;;;1.40;;
10721;SDS011;5412;59.450;18.124;2023-05-20T06:30:55;3.55;;;2.03;;
10721;SDS011;5412;59.450;18.124;2023-05-20T06:33:22;10.80;;;6.88;;
10721;SDS011;5412;59.450;18.124;2023-05-20T06:35:54;5.32;;;2.25;;
10721;SDS011;5412;59.450;18.124;2023-05-20T06:38:20;5.80;;;1.80;;
10721;SDS011;5412;59.450;18.124;2023-05-20T06:40:49;4.15;;;1.70;;
10721;SDS011;5412;59.450;18.124;2023-05-20T06:43:15;3.63;;;1.20;;
10721;SDS011;5412;59.450;18.124;2023-05-20T06:45:42;1.63;;;1.13;;
10721;SDS011;5412;59.450;18.124;2023-05-20T06:48:08;2.30;;;1.45;;
10721;SDS011;5412;59.450;18.124;2023-05-20T06:50:35;2.25;;;1.30;;
10721;SDS011;5412;59.450;18.124;2023-05-20T06:53:00;3.55;;;1.50;;
10721;SDS011;5412;59.450;18.124;2023-05-20T06:55:26;2.85;;;1.35;;
10721;SDS011;5412;59.450;18.124;2023-05-20T06:57:52;5.38;;;1.95;;
10721;SDS011;5412;59.450;18.124;2023-05-20T07:00:18;2.63;;;0.90;;
10721;SDS011;5412;59.450;18.124;2023-05-20T07:02:44;1.27;;;1.10;;
10721;SDS011;5412;59.450;18.124;2023-05-20T07:05:10;2.20;;;1.20;;
10721;SDS011;5412;59.450;18.124;2023-05-20T07:07:36;5.90;;;1.60;;
10721;SDS011;5412;59.450;18.124;2023-05-20T07:10:02;2.08;;;1.20;;
10721;SDS011;5412;59.450;18.124;2023-05-20T07:12:30;3.35;;;1.38;;
10721;SDS011;5412;59.450;18.124;2023-05-20T07:14:56;2.33;;;1.27;;
10721;SDS011;5412;59.450;18.124;2023-05-20T07:17:22;2.05;;;1.85;;
10721;SDS011;5412;59.450;18.124;2023-05-20T07:19:48;3.65;;;1.20;;
10721;SDS011;5412;59.450;18.124;2023-05-20T07:22:14;2.55;;;1.00;;
10721;SDS011;5412;59.450;18.124;2023-05-20T07:24:40;1.77;;;1.10;;
10721;SDS011;5412;59.450;18.124;2023-05-20T07:27:06;2.13;;;1.13;;
10721;SDS011;5412;59.450;18.124;2023-05-20T07:29:32;1.88;;;1.20;;
10721;SDS011;5412;59.450;18.124;2023-05-20T07:31:58;3.20;;;1.30;;
10721;SDS011;5412;59.450;18.124;2023-05-20T07:34:24;3.45;;;0.93;;
10721;SDS011;5412;59.450;18.124;2023-05-20T07:36:50;2.58;;;1.38;;
10721;SDS011;5412;59.450;18.124;2023-05-20T07:39:17;2.90;;;1.20;;
10721;SDS011;5412;59.450;18.124;2023-05-20T07:41:43;2.15;;;1.30;;
10721;SDS011;5412;59.450;18.124;2023-05-20T07:44:08;6.18;;;1.40;;
10721;SDS011;5412;59.450;18.124;2023-05-20T07:46:35;4.05;;;1.40;;
10721;SDS011;5412;59.450;18.124;2023-05-20T07:49:02;2.25;;;1.30;;
10721;SDS011;5412;59.450;18.124;2023-05-20T07:51:28;2.17;;;1.15;;
10721;SDS011;5412;59.450;18.124;2023-05-20T07:53:54;3.22;;;1.45;;
10721;SDS011;5412;59.450;18.124;2023-05-20T07:56:20;3.17;;;1.48;;
10721;SDS011;5412;59.450;18.124;2023-05-20T07:58:52;1.30;;;1.02;;
10721;SDS011;5412;59.450;18.124;2023-05-20T08:01:19;3.70;;;1.30;;
10721;SDS011;5412;59.450;18.124;2023-05-20T08:03:46;1.45;;;1.25;;
10721;SDS011;5412;59.450;18.124;2023-05-20T08:06:11;6.85;;;1.60;;
10721;SDS011;5412;59.450;18.124;2023-05-20T08:08:37;3.35;;;1.20;;
10721;SDS011;5412;59.450;18.124;2023-05-20T08:11:05;4.88;;;1.25;;
10721;SDS011;5412;59.450;18.124;2023-05-20T08:13:31;1.92;;;1.05;;
10721;SDS011;5412;59.450;18.124;2023-05-20T08:15:57;4.32;;;1.27;;
10721;SDS011;5412;59.450;18.124;2023-05-20T08:18:23;3.75;;;1.50;;
10721;SDS011;5412;59.450;18.124;2023-05-20T08:20:49;2.42;;;1.10;;
10721;SDS011;5412;59.450;18.124;2023-05-20T08:23:15;2.03;;;1.35;;
10721;SDS011;5412;59.450;18.124;2023-05-20T08:25:41;1.92;;;1.10;;
10721;SDS011;5412;59.450;18.124;2023-05-20T08:28:07;1.83;;;1.52;;
10721;SDS011;5412;59.450;18.124;2023-05-20T08:30:32;2.67;;;1.17;;
10721;SDS011;5412;59.450;18.124;2023-05-20T08:32:59;2.08;;;1.27;;
10721;SDS011;5412;59.450;18.124;2023-05-20T08:35:25;3.80;;;1.08;;
10721;SDS011;5412;59.450;18.124;2023-05-20T08:37:51;5.15;;;3.85;;
10721;SDS011;5412;59.450;18.124;2023-05-20T08:40:20;3.30;;;2.13;;
10721;SDS011;5412;59.450;18.124;2023-05-20T08:42:50;3.13;;;1.10;;
10721;SDS011;5412;59.450;18.124;2023-05-20T08:45:19;4.82;;;2.60;;
10721;SDS011;5412;59.450;18.124;2023-05-20T08:47:50;1.42;;;0.90;;
10721;SDS011;5412;59.450;18.124;2023-05-20T08:50:17;2.25;;;1.38;;
10721;SDS011;5412;59.450;18.124;2023-05-20T08:52:44;3.42;;;1.08;;
10721;SDS011;5412;59.450;18.124;2023-05-20T08:55:14;3.40;;;1.33;;
10721;SDS011;5412;59.450;18.124;2023-05-20T08:58:04;2.55;;;1.30;;
10721;SDS011;5412;59.450;18.124;2023-05-20T09:00:31;5.28;;;3.10;;
10721;SDS011;5412;59.450;18.124;2023-05-20T09:02:57;3.90;;;1.30;;
10721;SDS011;5412;59.450;18.124;2023-05-20T09:05:24;4.90;;;1.33;;
10721;SDS011;5412;59.450;18.124;2023-05-20T09:07:51;2.17;;;1.60;;
10721;SDS011;5412;59.450;18.124;2023-05-20T09:10:17;4.30;;;1.42;;
10721;SDS011;5412;59.450;18.124;2023-05-20T09:12:44;2.10;;;1.17;;
10721;SDS011;5412;59.450;18.124;2023-05-20T09:15:10;2.90;;;1.27;;
10721;SDS011;5412;59.450;18.124;2023-05-20T09:17:36;3.22;;;1.92;;
10721;SDS011;5412;59.450;18.124;2023-05-20T09:20:08;5.93;;;1.10;;
10721;SDS011;5412;59.450;18.124;2023-05-20T09:22:35;1.33;;;1.05;;
10721;SDS011;5412;59.450;18.124;2023-05-20T09:25:02;3.70;;;1.30;;
10721;SDS011;5412;59.450;18.124;2023-05-20T09:27:29;2.78;;;1.17;;
10721;SDS011;5412;59.450;18.124;2023-05-20T09:29:55;2.65;;;1.30;;
10721;SDS011;5412;59.450;18.124;2023-05-20T09:32:20;2.22;;;1.20;;
10721;SDS011;5412;59.450;18.124;2023-05-20T09:34:52;2.28;;;1.23;;
10721;SDS011;5412;59.450;18.124;2023-05-20T09:37:18;2.47;;;0.80;;
10721;SDS011;5412;59.450;18.124;2023-05-20T09:39:55;2.42;;;1.00;;
10721;SDS011;5412;59.450;18.124;2023-05-20T09:42:25;2.50;;;1.23;;
10721;SDS011;5412;59.450;18.124;2023-05-20T09:45:08;3.75;;;1.50;;
10721;SDS011;5412;59.450;18.124;2023-05-20T09:47:37;2.88;;;1.40;;
10721;SDS011;5412;59.450;18.124;2023-05-20T09:50:07;2.53;;;1.30;;
10721;SDS011;5412;59.450;18.124;2023-05-20T09:52:34;2.63;;;1.15;;
10721;SDS011;5412;59.450;18.124;2023-05-20T09:55:03;1.55;;;1.10;;
10721;SDS011;5412;59.450;18.124;2023-05-20T09:57:33;2.00;;;1.17;;
10721;SDS011;5412;59.450;18.124;2023-05-20T10:00:00;1.75;;;1.20;;
10721;SDS011;5412;59.450;18.124;2023-05-20T10:02:26;1.63;;;1.27;;
10721;SDS011;5412;59.450;18.124;2023-05-20T10:04:53;1.08;;;0.90;;
10721;SDS011;5412;59.450;18.124;2023-05-20T10:07:36;2.30;;;1.42;;
10721;SDS011;5412;59.450;18.124;2023-05-20T10:21:57;4.10;;;1.27;;
10721;SDS011;5412;59.450;18.124;2023-05-20T10:24:28;4.63;;;1.20;;
10721;SDS011;5412;59.450;18.124;2023-05-20T10:26:58;1.70;;;0.98;;
10721;SDS011;5412;59.450;18.124;2023-05-20T10:29:27;4.30;;;1.08;;
10721;SDS011;5412;59.450;18.124;2023-05-20T10:31:53;1.85;;;1.40;;
10721;SDS011;5412;59.450;18.124;2023-05-20T10:34:20;2.40;;;1.10;;
10721;SDS011;5412;59.450;18.124;2023-05-20T10:39:18;1.92;;;1.08;;
10721;SDS011;5412;59.450;18.124;2023-05-20T10:42:14;2.90;;;1.45;;
10721;SDS011;5412;59.450;18.124;2023-05-20T10:44:40;2.40;;;1.30;;
10721;SDS011;5412;59.450;18.124;2023-05-20T10:47:06;1.55;;;1.40;;
10721;SDS011;5412;59.450;18.124;2023-05-20T10:49:33;1.30;;;1.02;;
10721;SDS011;5412;59.450;18.124;2023-05-20T10:52:00;1.73;;;1.17;;
10721;SDS011;5412;59.450;18.124;2023-05-20T10:54:26;2.15;;;1.00;;
10721;SDS011;5412;59.450;18.124;2023-05-20T10:56:53;1.65;;;1.30;;
10721;SDS011;5412;59.450;18.124;2023-05-20T10:59:19;2.53;;;1.15;;
10721;SDS011;5412;59.450;18.124;2023-05-20T11:01:46;1.65;;;1.08;;
10721;SDS011;5412;59.450;18.124;2023-05-20T11:04:14;2.25;;;1.33;;
10721;SDS011;5412;59.450;18.124;2023-05-20T11:06:48;3.05;;;1.42;;
10721;SDS011;5412;59.450;18.124;2023-05-20T11:09:15;2.25;;;1.20;;
10721;SDS011;5412;59.450;18.124;2023-05-20T11:11:41;2.10;;;1.30;;
10721;SDS011;5412;59.450;18.124;2023-05-20T11:14:08;1.80;;;1.20;;
10721;SDS011;5412;59.450;18.124;2023-05-20T11:16:37;2.60;;;1.30;;
10721;SDS011;5412;59.450;18.124;2023-05-20T11:19:05;1.85;;;1.70;;
10721;SDS011;5412;59.450;18.124;2023-05-20T11:21:41;1.25;;;1.15;;
10721;SDS011;5412;59.450;18.124;2023-05-20T11:24:08;3.05;;;1.35;;
10721;SDS011;5412;59.450;18.124;2023-05-20T11:26:34;1.33;;;1.10;;
10721;SDS011;5412;59.450;18.124;2023-05-20T11:29:00;1.80;;;1.38;;
10721;SDS011;5412;59.450;18.124;2023-05-20T11:31:27;1.95;;;1.20;;
10721;SDS011;5412;59.450;18.124;2023-05-20T11:33:52;2.40;;;1.05;;
10721;SDS011;5412;59.450;18.124;2023-05-20T11:36:18;2.00;;;1.50;;
10721;SDS011;5412;59.450;18.124;2023-05-20T11:38:47;2.78;;;1.58;;
10721;SDS011;5412;59.450;18.124;2023-05-20T11:41:12;4.13;;;1.30;;
10721;SDS011;5412;59.450;18.124;2023-05-20T11:43:38;3.25;;;1.73;;
10721;SDS011;5412;59.450;18.124;2023-05-20T11:46:06;1.77;;;1.30;;
10721;SDS011;5412;59.450;18.124;2023-05-20T11:48:33;4.35;;;1.58;;
10721;SDS011;5412;59.450;18.124;2023-05-20T11:50:59;1.17;;;1.08;;
10721;SDS011;5412;59.450;18.124;2023-05-20T11:53:25;3.30;;;1.60;;
10721;SDS011;5412;59.450;18.124;2023-05-20T11:55:52;4.57;;;1.42;;
10721;SDS011;5412;59.450;18.124;2023-05-20T11:58:29;2.97;;;1.33;;
10721;SDS011;5412;59.450;18.124;2023-05-20T12:00:55;2.28;;;1.27;;
10721;SDS011;5412;59.450;18.124;2023-05-20T12:03:21;2.28;;;1.10;;
10721;SDS011;5412;59.450;18.124;2023-05-20T12:05:47;1.65;;;1.20;;
10721;SDS011;5412;59.450;18.124;2023-05-20T12:08:14;1.80;;;1.40;;
10721;SDS011;5412;59.450;18.124;2023-05-20T12:10:40;1.33;;;1.10;;
10721;SDS011;5412;59.450;18.124;2023-05-20T12:13:06;1.38;;;1.10;;
10721;SDS011;5412;59.450;18.124;2023-05-20T12:15:37;6.53;;;1.63;;
10721;SDS011;5412;59.450;18.124;2023-05-20T12:18:03;3.10;;;1.15;;
10721;SDS011;5412;59.450;18.124;2023-05-20T12:20:29;3.08;;;1.00;;
10721;SDS011;5412;59.450;18.124;2023-05-20T12:22:57;6.13;;;1.45;;
10721;SDS011;5412;59.450;18.124;2023-05-20T12:25:24;1.73;;;1.58;;
10721;SDS011;5412;59.450;18.124;2023-05-20T12:27:50;2.80;;;1.48;;
10721;SDS011;5412;59.450;18.124;2023-05-20T12:30:17;28.38;;;3.33;;
10721;SDS011;5412;59.450;18.124;2023-05-20T12:32:44;1.38;;;1.00;;
10721;SDS011;5412;59.450;18.124;2023-05-20T12:35:10;12.60;;;2.13;;
10721;SDS011;5412;59.450;18.124;2023-05-20T12:37:37;7.35;;;1.67;;
10721;SDS011;5412;59.450;18.124;2023-05-20T12:40:04;2.60;;;1.10;;
10721;SDS011;5412;59.450;18.124;2023-05-20T12:42:37;1.15;;;0.95;;
10721;SDS011;5412;59.450;18.124;2023-05-20T12:45:04;2.15;;;1.20;;
10721;SDS011;5412;59.450;18.124;2023-05-20T12:47:32;7.07;;;1.10;;
10721;SDS011;5412;59.450;18.124;2023-05-20T12:49:59;2.72;;;1.08;;
10721;SDS011;5412;59.450;18.124;2023-05-20T12:52:26;5.10;;;1.40;;
10721;SDS011;5412;59.450;18.124;2023-05-20T12:54:55;3.67;;;0.90;;
10721;SDS011;5412;59.450;18.124;2023-05-20T12:57:21;17.23;;;2.13;;
10721;SDS011;5412;59.450;18.124;2023-05-20T12:59:47;3.95;;;1.48;;
10721;SDS011;5412;59.450;18.124;2023-05-20T13:02:13;10.80;;;2.28;;
10721;SDS011;5412;59.450;18.124;2023-05-20T13:04:39;7.85;;;1.77;;
10721;SDS011;5412;59.450;18.124;2023-05-20T13:07:05;5.38;;;4.32;;
10721;SDS011;5412;59.450;18.124;2023-05-20T13:09:31;3.83;;;2.38;;
10721;SDS011;5412;59.450;18.124;2023-05-20T13:11:57;6.60;;;2.25;;
10721;SDS011;5412;59.450;18.124;2023-05-20T13:14:23;2.00;;;1.10;;
10721;SDS011;5412;59.450;18.124;2023-05-20T13:16:49;1.27;;;1.17;;
10721;SDS011;5412;59.450;18.124;2023-05-20T13:19:19;3.35;;;1.15;;
10721;SDS011;5412;59.450;18.124;2023-05-20T13:21:46;2.08;;;1.40;;
10721;SDS011;5412;59.450;18.124;2023-05-20T13:24:12;3.13;;;1.38;;
10721;SDS011;5412;59.450;18.124;2023-05-20T13:26:38;2.15;;;1.15;;
10721;SDS011;5412;59.450;18.124;2023-05-20T13:29:05;2.65;;;0.90;;
10721;SDS011;5412;59.450;18.124;2023-05-20T13:31:31;3.45;;;0.90;;
10721;SDS011;5412;59.450;18.124;2023-05-20T13:33:57;1.13;;;1.05;;
10721;SDS011;5412;59.450;18.124;2023-05-20T13:36:24;3.47;;;1.52;;
10721;SDS011;5412;59.450;18.124;2023-05-20T13:38:51;2.00;;;1.02;;
10721;SDS011;5412;59.450;18.124;2023-05-20T13:41:17;1.67;;;1.10;;
10721;SDS011;5412;59.450;18.124;2023-05-20T13:43:42;1.15;;;1.00;;
10721;SDS011;5412;59.450;18.124;2023-05-20T13:46:08;1.50;;;1.10;;
10721;SDS011;5412;59.450;18.124;2023-05-20T13:48:34;6.80;;;1.35;;
10721;SDS011;5412;59.450;18.124;2023-05-20T13:51:00;2.25;;;1.00;;
10721;SDS011;5412;59.450;18.124;2023-05-20T13:53:26;2.35;;;1.52;;
10721;SDS011;5412;59.450;18.124;2023-05-20T13:55:52;5.47;;;1.40;;
10721;SDS011;5412;59.450;18.124;2023-05-20T13:58:18;1.20;;;1.05;;
10721;SDS011;5412;59.450;18.124;2023-05-20T14:00:44;5.85;;;1.60;;
10721;SDS011;5412;59.450;18.124;2023-05-20T14:03:10;9.60;;;1.90;;
10721;SDS011;5412;59.450;18.124;2023-05-20T14:05:36;21.48;;;3.22;;
10721;SDS011;5412;59.450;18.124;2023-05-20T14:08:01;32.22;;;3.47;;
10721;SDS011;5412;59.450;18.124;2023-05-20T14:10:27;15.63;;;2.33;;
10721;SDS011;5412;59.450;18.124;2023-05-20T14:12:53;19.20;;;3.38;;
10721;SDS011;5412;59.450;18.124;2023-05-20T14:15:21;3.97;;;1.52;;
10721;SDS011;5412;59.450;18.124;2023-05-20T14:17:47;2.05;;;0.90;;
10721;SDS011;5412;59.450;18.124;2023-05-20T14:20:12;4.68;;;1.80;;
10721;SDS011;5412;59.450;18.124;2023-05-20T14:22:38;61.45;;;9.00;;
10721;SDS011;5412;59.450;18.124;2023-05-20T14:25:04;71.60;;;7.00;;
10721;SDS011;5412;59.450;18.124;2023-05-20T14:27:30;57.33;;;7.28;;
10721;SDS011;5412;59.450;18.124;2023-05-20T14:29:56;20.42;;;2.78;;
10721;SDS011;5412;59.450;18.124;2023-05-20T14:32:22;1.23;;;1.13;;
10721;SDS011;5412;59.450;18.124;2023-05-20T14:34:48;4.88;;;1.20;;
10721;SDS011;5412;59.450;18.124;2023-05-20T14:37:13;18.25;;;3.00;;
10721;SDS011;5412;59.450;18.124;2023-05-20T14:39:39;9.80;;;1.48;;
10721;SDS011;5412;59.450;18.124;2023-05-20T14:42:05;8.65;;;2.85;;
10721;SDS011;5412;59.450;18.124;2023-05-20T14:44:31;6.93;;;4.45;;
10721;SDS011;5412;59.450;18.124;2023-05-20T14:46:56;4.38;;;1.40;;
10721;SDS011;5412;59.450;18.124;2023-05-20T14:49:22;2.53;;;1.40;;
10721;SDS011;5412;59.450;18.124;2023-05-20T14:51:48;3.50;;;1.48;;
10721;SDS011;5412;59.450;18.124;2023-05-20T14:54:14;6.13;;;3.60;;
10721;SDS011;5412;59.450;18.124;2023-05-20T14:56:41;4.25;;;3.40;;
10721;SDS011;5412;59.450;18.124;2023-05-20T14:59:07;3.88;;;1.90;;
10721;SDS011;5412;59.450;18.124;2023-05-20T15:01:33;3.10;;;1.20;;